Time;durP1;ratioP1;P1;durP2;ratioP2;P2;SDS_P1;SDS_P2;PMS_P1;PMS_P2;Temp;Humidity;BMP_temperature;BMP_pressure;BME280_temperature;BME280_humidity;BME280_pressure;Samples;Min_cycle;Max_cycle;Signal;HPM_P1;HPM_P2
2022/12/17 13:07:24;;;;;;;39.57;23.77;;;;;;;-3.40;100.00;98996.34;5116974;28;20387;-70
2022/12/17 13:09:54;;;;;;;34.97;24.05;;;;;;;-3.38;100.00;98986.69;5116152;28;20414;-70
2022/12/17 13:12:44;;;;;;;38.47;25.17;;;;;;;-3.37;100.00;98984.88;5116603;28;20223;-70
2022/12/17 13:15:20;;;;;;;37.37;25.13;;;;;;;-3.38;100.00;98981.47;5116389;28;20423;-71
2022/12/17 13:18:16;;;;;;;34.83;23.53;;;;;;;-3.64;100.00;98985.09;5116493;28;20423;-69
2022/12/17 13:20:42;;;;;;;39.63;25.23;;;;;;;-3.68;100.00;98975.00;5116265;28;20424;-68
2022/12/17 13:23:08;;;;;;;38.13;24.97;;;;;;;-3.53;100.00;98977.34;5116331;28;20449;-68
2022/12/17 13:25:36;;;;;;;37.73;24.93;;;;;;;-3.58;100.00;98976.84;5117007;28;20528;-69
2022/12/17 13:28:02;;;;;;;37.13;24.80;;;;;;;-3.66;100.00;98980.94;5115714;28;20443;-71
2022/12/17 13:30:38;;;;;;;38.90;24.60;;;;;;;-3.65;100.00;98980.00;5116635;28;20526;-71
2022/12/17 13:33:31;;;;;;;42.87;25.30;;;;;;;-3.76;100.00;98975.56;5116726;28;20445;-71
2022/12/17 13:36:15;;;;;;;39.93;26.40;;;;;;;-3.56;100.00;98985.38;5116316;28;20430;-71
2022/12/17 13:38:49;;;;;;;39.57;26.03;;;;;;;-3.64;100.00;98984.25;5116266;28;20424;-71
2022/12/17 13:41:19;;;;;;;43.00;26.33;;;;;;;-3.71;100.00;98977.84;5116132;28;20464;-71
2022/12/17 13:43:56;;;;;;;37.67;25.13;;;;;;;-3.81;100.00;98974.22;5116112;28;20442;-71
2022/12/17 13:46:41;;;;;;;39.33;25.80;;;;;;;-3.89;100.00;98974.75;5116092;28;20433;-69
2022/12/17 13:49:21;;;;;;;39.07;25.67;;;;;;;-3.93;100.00;98983.69;5115511;28;20462;-69
2022/12/17 13:51:48;;;;;;;44.77;27.07;;;;;;;-3.80;100.00;98975.88;5115538;28;20455;-69
2022/12/17 13:54:18;;;;;;;49.37;30.10;;;;;;;-3.79;100.00;98973.16;5115868;28;20461;-71
2022/12/17 13:56:45;;;;;;;43.37;28.00;;;;;;;-3.85;100.00;98984.00;5115087;28;20843;-71
2022/12/17 13:59:21;;;;;;;42.77;27.33;;;;;;;-3.97;100.00;98984.84;5115224;28;20478;-68
2022/12/17 14:01:53;;;;;;;47.03;27.83;;;;;;;-3.85;100.00;98981.41;5115654;28;20458;-69
2022/12/17 14:04:22;;;;;;;46.73;27.33;;;;;;;-3.86;100.00;98997.09;5115317;28;20887;-68
2022/12/17 14:06:50;;;;;;;43.07;27.03;;;;;;;-3.83;100.00;98997.72;5115506;28;20442;-68
2022/12/17 14:09:18;;;;;;;37.87;26.50;;;;;;;-4.02;100.00;98997.31;5115118;28;20491;-68
2022/12/17 14:14:37;;;;;;;39.87;25.90;;;;;;;-3.86;100.00;99005.72;5115153;28;20474;-69
2022/12/17 14:17:04;;;;;;;44.17;27.20;;;;;;;-4.06;100.00;99014.06;5115258;28;20446;-69
2022/12/17 14:19:31;;;;;;;40.83;26.10;;;;;;;-4.25;100.00;99003.25;5115101;28;20454;-69
2022/12/17 14:21:58;;;;;;;41.77;27.33;;;;;;;-4.13;100.00;99010.22;5096353;28;20463;-68
2022/12/17 14:24:28;;;;;;;43.03;26.77;;;;;;;-4.18;100.00;99008.84;5114698;28;20439;-69
2022/12/17 14:26:58;;;;;;;40.43;25.80;;;;;;;-4.33;100.00;99018.53;5114989;28;20543;-68
2022/12/17 14:29:30;;;;;;;48.40;28.83;;;;;;;-4.31;100.00;99019.25;5114843;28;20459;-68
2022/12/17 14:32:21;;;;;;;46.93;27.07;;;;;;;-4.13;100.00;99019.75;5114873;28;20467;-68
2022/12/17 14:34:47;;;;;;;42.30;26.87;;;;;;;-4.27;100.00;99018.09;5114699;28;20908;-68
2022/12/17 14:37:18;;;;;;;42.37;27.67;;;;;;;-4.27;100.00;99018.09;5114940;28;20435;-68
2022/12/17 14:39:47;;;;;;;40.73;26.57;;;;;;;-4.28;100.00;99020.81;5114610;28;20459;-68
2022/12/17 14:42:29;;;;;;;40.83;28.63;;;;;;;-4.23;100.00;99016.97;5114742;28;20817;-68
2022/12/17 14:45:21;;;;;;;43.53;26.73;;;;;;;-4.36;100.00;99021.31;5114741;28;20431;-68
2022/12/17 14:47:58;;;;;;;46.07;27.50;;;;;;;-4.38;100.00;99023.19;5114670;28;20759;-68
2022/12/17 14:50:32;;;;;;;47.07;29.23;;;;;;;-4.42;100.00;99021.75;5097300;28;20463;-69
2022/12/17 14:53:02;;;;;;;48.87;28.23;;;;;;;-4.49;100.00;99017.03;5114343;28;20420;-69
2022/12/17 14:55:29;;;;;;;45.77;28.87;;;;;;;-4.49;100.00;99014.44;5114521;28;20435;-68
2022/12/17 14:58:12;;;;;;;50.07;29.07;;;;;;;-4.51;100.00;99029.31;5113945;28;20787;-69
2022/12/17 15:00:53;;;;;;;47.57;28.93;;;;;;;-4.61;100.00;99016.09;5114272;28;20420;-69
2022/12/17 15:03:28;;;;;;;43.90;28.07;;;;;;;-4.63;100.00;99017.97;5114105;28;20439;-69
2022/12/17 15:06:01;;;;;;;43.90;27.97;;;;;;;-4.58;100.00;99020.25;5114437;28;20447;-69
2022/12/17 15:08:34;;;;;;;44.93;27.53;;;;;;;-4.64;100.00;99023.25;5096582;28;20424;-69
2022/12/17 15:11:01;;;;;;;43.40;28.87;;;;;;;-4.63;100.00;99022.31;5114202;28;20459;-69
2022/12/17 15:13:27;;;;;;;46.00;28.00;;;;;;;-4.66;100.00;99019.94;5114244;28;20462;-69
2022/12/17 15:15:54;;;;;;;40.77;27.53;;;;;;;-4.70;100.00;99018.50;5114278;28;20441;-69
2022/12/17 15:18:20;;;;;;;46.20;27.87;;;;;;;-4.84;100.00;99023.75;5113923;28;20435;-69
2022/12/17 15:20:47;;;;;;;42.63;27.60;;;;;;;-4.91;100.00;99018.13;5113720;28;20477;-69
2022/12/17 15:23:17;;;;;;;42.57;27.20;;;;;;;-4.95;100.00;99026.19;5095816;28;20432;-69
2022/12/17 15:25:45;;;;;;;48.33;29.17;;;;;;;-4.97;100.00;99034.06;5096066;28;20441;-69
2022/12/17 15:28:12;;;;;;;44.60;28.90;;;;;;;-5.05;100.00;99020.78;5113831;28;20439;-69
2022/12/17 15:30:39;;;;;;;48.10;30.33;;;;;;;-5.09;100.00;99024.50;5113587;28;20482;-69
2022/12/17 15:33:07;;;;;;;43.63;29.93;;;;;;;-5.06;100.00;99026.06;5113996;28;20439;-69
2022/12/17 15:35:33;;;;;;;48.30;29.07;;;;;;;-5.15;100.00;99035.25;5113865;28;20455;-69
2022/12/17 15:38:00;;;;;;;44.47;28.77;;;;;;;-5.19;100.00;99044.19;5113972;28;20439;-69
2022/12/17 15:40:26;;;;;;;43.97;27.90;;;;;;;-5.21;100.00;99035.66;5113560;28;20439;-69
2022/12/17 15:43:10;;;;;;;50.40;30.13;;;;;;;-5.18;100.00;99043.25;5113465;28;20918;-69
2022/12/17 15:45:49;;;;;;;45.30;29.13;;;;;;;-5.21;100.00;99035.66;5113817;28;20428;-69
2022/12/17 15:48:18;;;;;;;52.03;31.03;;;;;;;-5.19;100.00;99033.81;5113781;28;20427;-69
2022/12/17 15:50:45;;;;;;;50.07;30.87;;;;;;;-5.18;100.00;99039.81;5113669;28;20494;-69
2022/12/17 15:53:12;;;;;;;52.93;32.63;;;;;;;-5.19;100.00;99038.16;5113465;28;20435;-69
2022/12/17 15:55:39;;;;;;;48.23;30.83;;;;;;;-5.21;100.00;99040.84;5113595;28;20809;-69
2022/12/17 15:58:06;;;;;;;47.47;30.07;;;;;;;-5.20;100.00;99046.88;5113437;28;20439;-69
2022/12/17 16:00:33;;;;;;;48.27;30.40;;;;;;;-5.25;100.00;99048.91;5113411;28;20444;-69
2022/12/17 16:02:59;;;;;;;48.20;29.57;;;;;;;-5.32;100.00;99045.88;5113340;28;20760;-69
2022/12/17 16:05:26;;;;;;;50.80;31.03;;;;;;;-5.32;100.00;99053.66;5113520;28;20439;-69
2022/12/17 16:07:52;;;;;;;48.47;31.07;;;;;;;-5.31;100.00;99064.81;5113539;28;20805;-69
2022/12/17 16:10:19;;;;;;;50.87;29.53;;;;;;;-5.30;100.00;99061.34;5112912;28;20553;-69
2022/12/17 16:12:45;;;;;;;50.97;30.37;;;;;;;-5.33;100.00;99064.91;5113247;28;20466;-69
2022/12/17 16:15:12;;;;;;;47.50;30.67;;;;;;;-5.38;100.00;99072.16;5113323;28;20447;-69
2022/12/17 16:17:38;;;;;;;51.47;29.47;;;;;;;-5.40;100.00;99070.59;5113421;28;20534;-69
2022/12/17 16:20:06;;;;;;;53.63;31.13;;;;;;;-5.43;100.00;99063.03;5113309;28;20443;-69
2022/12/17 16:22:32;;;;;;;55.27;31.23;;;;;;;-5.43;100.00;99066.44;5117137;28;20475;-69
2022/12/17 16:24:59;;;;;;;51.30;29.43;;;;;;;-5.45;100.00;99067.44;5117278;28;20444;-69
2022/12/17 16:27:25;;;;;;;47.63;31.27;;;;;;;-5.45;100.00;99078.66;5117372;28;20435;-69
2022/12/17 16:29:51;;;;;;;53.73;32.33;;;;;;;-5.43;100.00;99079.38;5117203;28;20482;-69
2022/12/17 16:32:18;;;;;;;49.53;30.70;;;;;;;-5.48;100.00;99076.25;5117422;28;20467;-69
2022/12/17 16:34:45;;;;;;;52.53;32.77;;;;;;;-5.44;100.00;99077.72;5117583;28;20446;-69
2022/12/17 16:37:12;;;;;;;50.20;31.70;;;;;;;-5.47;100.00;99075.31;5116908;28;20519;-69
2022/12/17 16:39:38;;;;;;;54.00;30.73;;;;;;;-5.48;100.00;99076.25;5117274;28;20431;-69
2022/12/17 16:42:05;;;;;;;48.00;29.60;;;;;;;-5.49;100.00;99076.34;5116909;28;20456;-69
2022/12/17 16:44:31;;;;;;;56.20;32.00;;;;;;;-5.52;100.00;99072.19;5117259;28;20439;-69
2022/12/17 16:46:57;;;;;;;50.37;30.23;;;;;;;-5.47;100.00;99069.31;5117239;28;20544;-69
2022/12/17 16:49:24;;;;;;;50.83;30.67;;;;;;;-5.53;100.00;99067.94;5117154;28;20485;-69
2022/12/17 16:51:52;;;;;;;55.30;31.70;;;;;;;-5.61;100.00;99079.72;5117063;28;20462;-69
2022/12/17 16:54:24;;;;;;;53.57;31.37;;;;;;;-5.54;100.00;99074.06;5116901;28;20435;-69
2022/12/17 16:56:52;;;;;;;50.87;31.13;;;;;;;-5.54;100.00;99074.06;5116947;28;20489;-69
2022/12/17 16:59:18;;;;;;;54.23;31.33;;;;;;;-5.62;100.00;99078.84;5116212;28;20431;-69
2022/12/17 17:01:48;;;;;;;53.23;30.23;;;;;;;-5.69;100.00;99069.81;5116429;28;20542;-69
2022/12/17 17:04:15;;;;;;;51.60;31.13;;;;;;;-5.73;100.00;99070.09;5116479;28;20439;-69
2022/12/17 17:07:00;;;;;;;51.93;30.73;;;;;;;-5.75;100.00;99075.34;5117121;28;20439;-69
2022/12/17 17:09:26;;;;;;;52.07;29.23;;;;;;;-5.75;100.00;99077.13;5116551;28;20473;-69
2022/12/17 17:11:57;;;;;;;50.33;31.03;;;;;;;-5.80;100.00;99079.97;5116181;28;20961;-69
2022/12/17 17:14:24;;;;;;;51.13;31.00;;;;;;;-5.90;100.00;99075.47;5116433;28;20420;-69
2022/12/17 17:16:51;;;;;;;52.27;31.40;;;;;;;-5.95;100.00;99075.78;5116426;28;20774;-68
2022/12/17 17:19:18;;;;;;;49.40;31.07;;;;;;;-5.92;100.00;99091.09;5116270;28;20800;-69
2022/12/17 17:21:51;;;;;;;50.60;30.03;;;;;;;-5.89;100.00;99090.94;5116225;28;20919;-69
2022/12/17 17:24:20;;;;;;;48.73;29.20;;;;;;;-5.94;100.00;99085.19;5116189;28;20443;-69
2022/12/17 17:26:47;;;;;;;50.00;30.50;;;;;;;-5.94;100.00;99097.28;5116295;28;20522;-69
2022/12/17 17:29:14;;;;;;;50.60;29.37;;;;;;;-5.94;100.00;99092.97;5116316;28;20479;-68
2022/12/17 17:31:40;;;;;;;55.80;31.40;;;;;;;-6.06;100.00;99101.44;5116142;28;20456;-68
2022/12/17 17:34:11;;;;;;;54.77;31.90;;;;;;;-6.16;100.00;99102.09;5116183;28;20440;-71
2022/12/17 17:36:38;;;;;;;53.70;32.37;;;;;;;-6.04;100.00;99111.72;5115872;28;20435;-68
2022/12/17 17:39:05;;;;;;;56.30;32.53;;;;;;;-6.09;100.00;99105.97;5116134;28;20437;-68
2022/12/17 17:41:34;;;;;;;53.03;31.27;;;;;;;-6.10;100.00;99104.31;5116065;28;20455;-68
2022/12/17 17:44:05;;;;;;;53.50;31.03;;;;;;;-6.16;100.00;99102.91;5115298;28;20490;-68
2022/12/17 17:46:32;;;;;;;52.20;30.77;;;;;;;-6.22;100.00;99105.88;5115671;28;20489;-68
2022/12/17 17:49:02;;;;;;;54.20;32.10;;;;;;;-6.20;100.00;99108.38;5114606;28;20446;-69
2022/12/17 17:51:32;;;;;;;54.70;31.47;;;;;;;-6.18;100.00;99115.13;5114482;28;20457;-69
2022/12/17 17:54:00;;;;;;;53.67;31.37;;;;;;;-6.17;100.00;99114.19;5114626;28;20930;-69
2022/12/17 17:56:29;;;;;;;55.17;31.13;;;;;;;-6.21;100.00;99115.31;5114564;28;20526;-68
2022/12/17 17:58:59;;;;;;;50.17;30.70;;;;;;;-6.48;100.00;99119.47;5114716;28;20432;-69
2022/12/17 18:01:28;;;;;;;51.10;30.57;;;;;;;-6.42;100.00;99119.13;5115027;28;20451;-69
2022/12/17 18:03:57;;;;;;;55.47;32.83;;;;;;;-6.47;100.00;99120.31;5114899;28;20431;-69
2022/12/17 18:06:24;;;;;;;53.70;31.23;;;;;;;-6.37;100.00;99104.19;5115538;28;20953;-69
2022/12/17 18:08:50;;;;;;;50.10;31.00;;;;;;;-6.46;100.00;99109.91;5115180;28;20937;-69
2022/12/17 18:11:19;;;;;;;56.63;32.27;;;;;;;-6.43;100.00;99112.28;5115389;28;20479;-69
2022/12/17 18:13:54;;;;;;;53.27;30.77;;;;;;;-6.44;100.00;99115.81;5115503;28;20446;-70
2022/12/17 18:16:41;;;;;;;51.50;30.90;;;;;;;-6.46;100.00;99117.66;5115782;28;20756;-69
2022/12/17 18:19:14;;;;;;;53.97;30.60;;;;;;;-6.46;100.00;99122.84;5115271;28;20430;-69
2022/12/17 18:21:40;;;;;;;54.27;31.20;;;;;;;-6.42;100.00;99124.28;5114919;28;20482;-69
2022/12/17 18:24:11;;;;;;;55.70;31.80;;;;;;;-6.47;100.00;99122.91;5115289;28;20444;-69
2022/12/17 18:26:41;;;;;;;61.50;33.63;;;;;;;-6.45;100.00;99113.31;5114954;28;20424;-69
2022/12/17 18:29:18;;;;;;;57.50;32.97;;;;;;;-6.51;100.00;99106.72;5114620;28;20447;-69
2022/12/17 18:31:44;;;;;;;54.73;30.97;;;;;;;-6.67;100.00;99113.69;5115066;28;20463;-69
2022/12/17 18:34:14;;;;;;;57.27;32.23;;;;;;;-6.74;100.00;99119.31;5115070;28;20797;-69
2022/12/17 18:36:43;;;;;;;55.03;30.83;;;;;;;-6.77;100.00;99112.56;5114623;28;20443;-69
2022/12/17 18:39:13;;;;;;;57.13;32.67;;;;;;;-6.71;100.00;99119.97;5114659;28;20960;-68
2022/12/17 18:44:26;;;;;;;58.63;32.43;;;;;;;-6.78;100.00;99112.66;5114698;28;20464;-69
2022/12/17 18:46:53;;;;;;;57.60;32.27;;;;;;;-6.61;100.00;99133.22;5114526;28;20805;-69
2022/12/17 18:49:21;;;;;;;58.00;32.47;;;;;;;-6.52;100.00;99130.91;5114315;28;20938;-69
2022/12/17 18:51:49;;;;;;;57.70;32.77;;;;;;;-6.47;100.00;99134.06;5113887;28;20456;-70
2022/12/17 18:54:23;;;;;;;58.73;32.40;;;;;;;-6.55;100.00;99136.28;5114573;28;20443;-69
2022/12/17 18:56:50;;;;;;;57.27;31.40;;;;;;;-6.50;100.00;99139.44;5114574;28;20430;-69
2022/12/17 18:59:19;;;;;;;54.77;32.27;;;;;;;-6.54;100.00;99150.88;5114356;28;20454;-74
2022/12/17 19:01:47;;;;;;;54.67;31.30;;;;;;;-6.58;100.00;99154.56;5114576;28;20482;-69
2022/12/17 19:04:18;;;;;;;50.63;30.43;;;;;;;-6.60;100.00;99158.16;5114157;28;20443;-69
2022/12/17 19:06:47;;;;;;;56.73;31.90;;;;;;;-6.74;100.00;99155.50;5114346;28;20431;-68
2022/12/17 19:09:33;;;;;;;53.80;30.70;;;;;;;-6.82;100.00;99152.50;5114259;28;20454;-69
2022/12/17 19:12:00;;;;;;;53.73;31.13;;;;;;;-6.80;100.00;99148.91;5114028;28;20989;-69
2022/12/17 19:14:26;;;;;;;50.17;29.63;;;;;;;-6.81;100.00;99151.56;5114176;28;20435;-69
2022/12/17 19:16:54;;;;;;;45.63;29.50;;;;;;;-6.87;100.00;99147.56;5114288;28;20432;-69
2022/12/17 19:19:22;;;;;;;53.77;31.03;;;;;;;-6.85;100.00;99147.50;5114032;28;20486;-69
2022/12/17 19:21:50;;;;;;;58.47;31.57;;;;;;;-6.81;100.00;99152.44;5113823;28;20473;-69
2022/12/17 19:24:19;;;;;;;56.20;30.73;;;;;;;-6.84;100.00;99157.75;5113227;28;20522;-69
2022/12/17 19:26:46;;;;;;;51.90;30.60;;;;;;;-6.82;100.00;99166.28;5109698;28;20458;-69
2022/12/17 19:29:14;;;;;;;52.63;30.50;;;;;;;-6.77;100.00;99166.84;5109649;28;20439;-70
2022/12/17 19:31:41;;;;;;;52.10;31.07;;;;;;;-6.81;100.00;99172.25;5109809;28;20827;-69
2022/12/17 19:34:11;;;;;;;52.63;31.07;;;;;;;-6.94;100.00;99181.59;5110363;28;20466;-69
2022/12/17 19:36:39;;;;;;;49.17;29.80;;;;;;;-6.96;100.00;99181.72;5110795;28;20500;-70
2022/12/17 19:39:08;;;;;;;52.37;30.37;;;;;;;-6.98;100.00;99191.28;5109773;28;20536;-69
2022/12/17 19:41:35;;;;;;;50.63;29.93;;;;;;;-6.98;100.00;99191.28;5112804;28;20455;-69
2022/12/17 19:44:04;;;;;;;50.37;29.50;;;;;;;-7.01;100.00;99188.84;5113955;28;20474;-69
2022/12/17 19:46:32;;;;;;;49.40;29.70;;;;;;;-7.00;100.00;99197.44;5113835;28;20431;-69
2022/12/17 19:48:59;;;;;;;49.80;29.33;;;;;;;-7.01;100.00;99199.19;5113652;28;20438;-69
2022/12/17 19:51:28;;;;;;;52.43;29.87;;;;;;;-6.99;100.00;99199.97;5113789;28;20479;-69
2022/12/17 19:53:55;;;;;;;55.10;30.43;;;;;;;-7.00;100.00;99203.47;5113575;28;20530;-69
2022/12/17 19:56:25;;;;;;;57.00;31.30;;;;;;;-6.93;100.00;99186.69;5112732;28;20435;-69
2022/12/17 19:58:57;;;;;;;56.87;30.07;;;;;;;-6.92;100.00;99190.13;5113922;28;20475;-69
2022/12/17 20:01:44;;;;;;;48.43;28.27;;;;;;;-6.93;100.00;99186.69;5114056;28;20718;-69
2022/12/17 20:04:12;;;;;;;51.27;28.93;;;;;;;-6.93;100.00;99188.47;5095228;28;20526;-70
2022/12/17 20:06:39;;;;;;;48.30;28.47;;;;;;;-6.86;100.00;99182.88;5113682;28;20798;-69
2022/12/17 20:09:06;;;;;;;54.30;30.03;;;;;;;-6.80;100.00;99190.28;5113710;28;20447;-70
2022/12/17 20:11:33;;;;;;;55.73;29.57;;;;;;;-6.80;100.00;99192.88;5113671;28;20480;-69
2022/12/17 20:14:11;;;;;;;52.50;29.40;;;;;;;-6.86;100.00;99195.78;5113379;28;20530;-69
2022/12/17 20:16:50;;;;;;;54.40;30.33;;;;;;;-6.84;100.00;99188.78;5113479;28;20919;-70
2022/12/17 20:19:19;;;;;;;53.53;30.57;;;;;;;-6.96;100.00;99189.47;5113699;28;20435;-69
2022/12/17 20:21:46;;;;;;;54.70;29.93;;;;;;;-6.90;100.00;99185.69;5113125;28;20503;-69
2022/12/17 20:24:14;;;;;;;56.07;30.53;;;;;;;-6.87;100.00;99188.13;5113176;28;20446;-69
2022/12/17 20:26:41;;;;;;;51.70;30.97;;;;;;;-6.95;100.00;99191.13;5113453;28;20986;-69
2022/12/17 20:29:09;;;;;;;51.93;28.93;;;;;;;-7.05;100.00;99187.38;5113242;28;20530;-69
2022/12/17 20:31:36;;;;;;;52.17;29.93;;;;;;;-7.00;100.00;99187.13;5113538;28;20551;-69
2022/12/17 20:34:05;;;;;;;53.37;29.20;;;;;;;-6.92;100.00;99177.19;5113213;28;20887;-69
2022/12/17 20:36:32;;;;;;;52.37;29.97;;;;;;;-6.85;100.00;99179.34;5113225;28;20439;-69
2022/12/17 20:38:59;;;;;;;54.23;29.60;;;;;;;-6.88;100.00;99176.13;5113150;28;20526;-69
2022/12/17 20:41:28;;;;;;;47.73;28.60;;;;;;;-6.86;100.00;99171.69;5113020;28;20485;-70
2022/12/17 20:43:55;;;;;;;48.97;27.17;;;;;;;-6.79;100.00;99176.44;5113471;28;20454;-69
2022/12/17 20:46:23;;;;;;;53.07;28.70;;;;;;;-6.71;100.00;99174.25;5113055;28;20525;-69
2022/12/17 20:48:52;;;;;;;51.80;28.80;;;;;;;-6.93;100.00;99167.78;5113322;28;20805;-69
2022/12/17 20:51:24;;;;;;;50.23;28.10;;;;;;;-6.98;100.00;99168.03;5112801;28;20481;-69
2022/12/17 20:53:53;;;;;;;53.87;30.37;;;;;;;-7.04;100.00;99170.09;5113356;28;20426;-69
2022/12/17 20:56:23;;;;;;;52.93;29.43;;;;;;;-6.92;100.00;99172.84;5112970;28;20530;-69
2022/12/17 20:58:55;;;;;;;49.00;27.63;;;;;;;-7.03;100.00;99188.13;5113456;28;20426;-69
2022/12/17 21:01:23;;;;;;;48.73;27.70;;;;;;;-6.97;100.00;99192.13;5112935;28;20456;-69
2022/12/17 21:03:52;;;;;;;51.60;28.93;;;;;;;-6.94;100.00;99187.63;5112967;28;20450;-69
2022/12/17 21:06:23;;;;;;;46.43;27.77;;;;;;;-6.96;100.00;99198.97;5113861;28;20435;-69
2022/12/17 21:08:51;;;;;;;49.90;27.90;;;;;;;-7.03;100.00;99188.13;5116648;28;20462;-70
2022/12/17 21:11:22;;;;;;;57.37;28.70;;;;;;;-7.04;100.00;99185.59;5116355;28;21072;-69
2022/12/17 21:13:49;;;;;;;49.57;29.80;;;;;;;-7.12;100.00;99175.69;5116497;28;20515;-69
2022/12/17 21:16:23;;;;;;;52.43;29.50;;;;;;;-7.05;100.00;99177.03;5116698;28;20526;-69
2022/12/17 21:18:52;;;;;;;55.00;29.33;;;;;;;-7.06;100.00;99183.09;5116285;28;20511;-69
2022/12/17 21:21:21;;;;;;;54.33;29.03;;;;;;;-7.14;100.00;99187.88;5116182;28;20562;-69
2022/12/17 21:23:49;;;;;;;53.00;28.57;;;;;;;-7.14;100.00;99179.28;5116319;28;20435;-69
2022/12/17 21:26:20;;;;;;;52.23;29.93;;;;;;;-7.12;100.00;99180.84;5116544;28;20435;-69
2022/12/17 21:28:49;;;;;;;51.10;28.37;;;;;;;-7.09;100.00;99174.69;5117454;28;20458;-69
2022/12/17 21:31:15;;;;;;;51.13;30.30;;;;;;;-7.07;100.00;99180.59;5116068;28;20532;-69
2022/12/17 21:33:42;;;;;;;50.53;29.23;;;;;;;-7.08;100.00;99184.94;5115641;28;20938;-70
2022/12/17 21:36:09;;;;;;;55.07;30.73;;;;;;;-7.03;100.00;99179.50;5116175;28;20524;-69
2022/12/17 21:38:35;;;;;;;57.80;30.63;;;;;;;-7.13;100.00;99188.69;5116218;28;20443;-70
2022/12/17 21:41:11;;;;;;;51.30;28.50;;;;;;;-7.12;100.00;99185.19;5115694;28;20456;-69
2022/12/17 21:43:41;;;;;;;51.97;28.73;;;;;;;-7.10;100.00;99196.28;5115779;28;20425;-69
2022/12/17 21:46:09;;;;;;;52.03;28.03;;;;;;;-7.17;100.00;99194.94;5116184;28;20442;-69
2022/12/17 21:48:38;;;;;;;56.03;29.13;;;;;;;-7.14;100.00;99195.63;5116004;28;20444;-69
2022/12/17 21:51:06;;;;;;;51.73;29.83;;;;;;;-7.21;100.00;99193.41;5115430;28;20989;-70
2022/12/17 21:53:33;;;;;;;52.07;28.90;;;;;;;-7.25;100.00;99190.19;5116842;28;20444;-69
2022/12/17 21:56:11;;;;;;;55.53;29.80;;;;;;;-7.25;100.00;99194.50;5115718;28;20930;-69
2022/12/17 21:58:37;;;;;;;50.43;28.23;;;;;;;-7.27;100.00;99197.19;5115492;28;20419;-69
2022/12/17 22:01:16;;;;;;;54.03;29.57;;;;;;;-7.17;100.00;99200.94;5115869;28;20530;-70
2022/12/17 22:03:42;;;;;;;56.43;30.27;;;;;;;-7.12;100.00;99217.03;5115932;28;20419;-69
2022/12/17 22:06:12;;;;;;;52.93;30.17;;;;;;;-7.12;100.00;99214.44;5115536;28;20926;-70
2022/12/17 22:08:41;;;;;;;51.93;29.53;;;;;;;-7.25;100.00;99200.50;5115649;28;20443;-69
2022/12/17 22:11:19;;;;;;;61.00;31.50;;;;;;;-7.26;100.00;99210.91;5115705;28;20479;-69
2022/12/17 22:14:05;;;;;;;58.03;29.47;;;;;;;-7.31;100.00;99213.75;5115395;28;20422;-69
2022/12/17 22:16:45;;;;;;;55.37;31.07;;;;;;;-7.37;100.00;99226.16;5115744;28;20762;-69
2022/12/17 22:19:18;;;;;;;53.17;28.97;;;;;;;-7.44;100.00;99222.22;5114608;28;20455;-69
2022/12/17 22:21:45;;;;;;;50.77;27.43;;;;;;;-7.43;100.00;99219.56;5115126;28;20463;-70
2022/12/17 22:24:19;;;;;;;48.43;27.50;;;;;;;-7.52;100.00;99224.38;5115455;28;20457;-69
2022/12/17 22:26:46;;;;;;;50.17;28.73;;;;;;;-7.53;100.00;99212.38;5115459;28;20420;-69
2022/12/17 22:32:58;;;;;;;51.03;29.50;;;;;;;-7.48;100.00;99210.38;5115037;28;20438;-69
2022/12/17 22:34:46;;;;;;;47.30;27.23;;;;;;;-7.58;100.00;99202.28;5115068;28;20446;-69
2022/12/17 22:37:12;;;;;;;50.13;26.60;;;;;;;-7.55;100.00;99198.72;5114863;28;20435;-69
2022/12/17 22:39:38;;;;;;;47.20;27.47;;;;;;;-7.77;100.00;99211.91;5114724;28;20534;-69
2022/12/17 22:44:49;;;;;;;51.83;27.97;;;;;;;-7.62;100.00;99203.34;5114841;28;20929;-69
2022/12/17 22:47:15;;;;;;;50.77;27.47;;;;;;;-7.69;100.00;99212.31;5115046;28;20441;-69
2022/12/17 22:49:41;;;;;;;52.50;27.17;;;;;;;-7.62;100.00;99212.84;5114916;28;20431;-69
2022/12/17 22:52:08;;;;;;;49.27;28.47;;;;;;;-7.59;100.00;99205.78;5115299;28;20596;-69
2022/12/17 22:54:34;;;;;;;46.17;28.83;;;;;;;-7.50;100.00;99202.72;5114921;28;20442;-69
2022/12/17 22:57:00;;;;;;;46.53;27.73;;;;;;;-7.48;100.00;99208.63;5114900;28;20436;-69
2022/12/17 22:59:27;;;;;;;52.13;27.97;;;;;;;-7.56;100.00;99205.59;5114473;28;20504;-69
2022/12/17 23:01:53;;;;;;;47.00;27.53;;;;;;;-7.62;100.00;99205.94;5114768;28;20454;-69
2022/12/17 23:04:19;;;;;;;46.27;27.83;;;;;;;-7.58;100.00;99199.72;5114379;28;20439;-69
2022/12/17 23:06:46;;;;;;;54.80;28.60;;;;;;;-7.59;100.00;99200.63;5114364;28;20438;-69
2022/12/17 23:09:17;;;;;;;54.47;28.67;;;;;;;-7.65;100.00;99202.69;5115225;28;20435;-69
2022/12/17 23:11:43;;;;;;;54.17;29.90;;;;;;;-7.63;100.00;99206.00;5114535;28;20930;-69
2022/12/17 23:14:09;;;;;;;50.83;27.30;;;;;;;-7.65;100.00;99198.34;5114526;28;20431;-70
2022/12/17 23:16:38;;;;;;;50.20;28.67;;;;;;;-7.65;100.00;99197.53;5114256;28;20965;-69
2022/12/17 23:19:05;;;;;;;50.73;27.80;;;;;;;-7.65;100.00;99202.69;5114707;28;20496;-69
2022/12/17 23:21:31;;;;;;;51.63;27.90;;;;;;;-7.62;100.00;99213.69;5113845;28;20826;-69
2022/12/17 23:23:58;;;;;;;53.13;28.87;;;;;;;-7.62;100.00;99218.00;5114162;28;20440;-69
2022/12/17 23:26:27;;;;;;;52.40;28.37;;;;;;;-7.66;100.00;99214.75;5114193;28;20440;-69
2022/12/17 23:28:58;;;;;;;48.97;26.30;;;;;;;-7.81;100.00;99215.53;5113800;28;20439;-69
2022/12/17 23:31:27;;;;;;;49.87;27.93;;;;;;;-7.81;100.00;99225.88;5113748;28;20475;-69
2022/12/17 23:33:53;;;;;;;47.10;27.43;;;;;;;-7.75;100.00;99222.97;5114197;28;20444;-69
2022/12/17 23:36:21;;;;;;;49.23;27.87;;;;;;;-7.77;100.00;99209.31;5113742;28;20949;-69
2022/12/17 23:38:48;;;;;;;53.07;28.73;;;;;;;-7.84;100.00;99213.09;5113751;28;20439;-69
2022/12/17 23:41:19;;;;;;;56.83;28.07;;;;;;;-7.77;100.00;99219.63;5114172;28;20451;-70
2022/12/17 23:43:46;;;;;;;56.57;30.30;;;;;;;-7.81;100.00;99215.53;5114123;28;20431;-69
2022/12/17 23:46:12;;;;;;;51.40;29.83;;;;;;;-7.81;100.00;99212.97;5114122;28;20435;-69
2022/12/17 23:48:42;;;;;;;52.40;29.87;;;;;;;-7.74;100.00;99213.47;5114088;28;20450;-69
2022/12/17 23:51:10;;;;;;;45.27;27.13;;;;;;;-7.85;100.00;99208.84;5113740;28;20479;-69
2022/12/17 23:53:37;;;;;;;53.77;28.73;;;;;;;-7.80;100.00;99204.28;5113643;28;20946;-69
2022/12/17 23:56:25;;;;;;;50.13;28.23;;;;;;;-7.84;100.00;99201.94;5113933;28;20438;-69
2022/12/17 23:58:57;;;;;;;53.87;27.70;;;;;;;-7.78;100.00;99217.13;5114008;28;20420;-69
